sensor_id;sensor_type;location;lat;lon;timestamp;P1;durP1;ratioP1;P2;durP2;ratioP2
39314;SDS011;28703;44.412;11.918;2023-06-22T00:02:14;18.30;;;8.20;;
39314;SDS011;28703;44.412;11.918;2023-06-22T00:04:40;14.77;;;8.05;;
39314;SDS011;28703;44.412;11.918;2023-06-22T00:07:06;13.30;;;8.18;;
39314;SDS011;28703;44.412;11.918;2023-06-22T00:09:32;11.57;;;8.32;;
39314;SDS011;28703;44.412;11.918;2023-06-22T00:11:58;15.70;;;8.48;;
39314;SDS011;28703;44.412;11.918;2023-06-22T00:14:24;16.10;;;8.43;;
39314;SDS011;28703;44.412;11.918;2023-06-22T00:16:50;17.60;;;8.23;;
39314;SDS011;28703;44.412;11.918;2023-06-22T00:19:22;9.60;;;8.30;;
39314;SDS011;28703;44.412;11.918;2023-06-22T00:21:48;12.52;;;8.88;;
39314;SDS011;28703;44.412;11.918;2023-06-22T00:24:20;30.77;;;10.07;;
39314;SDS011;28703;44.412;11.918;2023-06-22T00:29:15;11.57;;;8.25;;
39314;SDS011;28703;44.412;11.918;2023-06-22T00:31:41;16.85;;;8.50;;
39314;SDS011;28703;44.412;11.918;2023-06-22T00:34:07;16.50;;;8.20;;
39314;SDS011;28703;44.412;11.918;2023-06-22T00:36:34;16.23;;;8.35;;
39314;SDS011;28703;44.412;11.918;2023-06-22T00:39:02;11.25;;;7.97;;
39314;SDS011;28703;44.412;11.918;2023-06-22T00:41:29;15.63;;;8.38;;
39314;SDS011;28703;44.412;11.918;2023-06-22T00:43:55;16.55;;;8.43;;
39314;SDS011;28703;44.412;11.918;2023-06-22T00:46:21;14.43;;;8.32;;
39314;SDS011;28703;44.412;11.918;2023-06-22T00:48:48;13.80;;;8.13;;
39314;SDS011;28703;44.412;11.918;2023-06-22T00:51:14;16.75;;;8.35;;
39314;SDS011;28703;44.412;11.918;2023-06-22T00:53:41;18.50;;;8.23;;
39314;SDS011;28703;44.412;11.918;2023-06-22T00:56:09;14.00;;;7.90;;
39314;SDS011;28703;44.412;11.918;2023-06-22T00:58:37;18.17;;;8.93;;
39314;SDS011;28703;44.412;11.918;2023-06-22T01:01:06;13.88;;;8.35;;
39314;SDS011;28703;44.412;11.918;2023-06-22T01:03:33;28.70;;;8.82;;
39314;SDS011;28703;44.412;11.918;2023-06-22T01:06:04;16.63;;;8.80;;
39314;SDS011;28703;44.412;11.918;2023-06-22T01:08:42;15.38;;;9.10;;
39314;SDS011;28703;44.412;11.918;2023-06-22T01:11:18;15.90;;;9.13;;
39314;SDS011;28703;44.412;11.918;2023-06-22T01:16:40;15.57;;;9.38;;
39314;SDS011;28703;44.412;11.918;2023-06-22T01:22:17;14.32;;;9.07;;
39314;SDS011;28703;44.412;11.918;2023-06-22T01:29:52;14.23;;;9.25;;
39314;SDS011;28703;44.412;11.918;2023-06-22T01:32:30;19.45;;;9.65;;
39314;SDS011;28703;44.412;11.918;2023-06-22T01:35:01;15.38;;;9.30;;
39314;SDS011;28703;44.412;11.918;2023-06-22T01:37:30;17.13;;;8.63;;
39314;SDS011;28703;44.412;11.918;2023-06-22T01:39:57;18.60;;;9.65;;
39314;SDS011;28703;44.412;11.918;2023-06-22T01:42:24;19.85;;;10.50;;
39314;SDS011;28703;44.412;11.918;2023-06-22T01:44:52;17.10;;;10.05;;
39314;SDS011;28703;44.412;11.918;2023-06-22T01:47:20;19.60;;;9.18;;
39314;SDS011;28703;44.412;11.918;2023-06-22T01:49:47;16.70;;;10.00;;
39314;SDS011;28703;44.412;11.918;2023-06-22T01:52:15;17.38;;;9.57;;
39314;SDS011;28703;44.412;11.918;2023-06-22T01:54:41;18.73;;;9.70;;
39314;SDS011;28703;44.412;11.918;2023-06-22T01:57:07;19.63;;;9.70;;
39314;SDS011;28703;44.412;11.918;2023-06-22T01:59:39;17.55;;;9.60;;
39314;SDS011;28703;44.412;11.918;2023-06-22T02:02:14;15.95;;;9.38;;
39314;SDS011;28703;44.412;11.918;2023-06-22T02:04:46;19.92;;;9.38;;
39314;SDS011;28703;44.412;11.918;2023-06-22T02:07:17;20.08;;;9.35;;
39314;SDS011;28703;44.412;11.918;2023-06-22T02:09:48;13.82;;;8.85;;
39314;SDS011;28703;44.412;11.918;2023-06-22T02:12:17;11.07;;;9.80;;
39314;SDS011;28703;44.412;11.918;2023-06-22T02:14:48;14.90;;;8.85;;
39314;SDS011;28703;44.412;11.918;2023-06-22T02:17:17;18.20;;;9.65;;
39314;SDS011;28703;44.412;11.918;2023-06-22T02:19:43;22.17;;;8.82;;
39314;SDS011;28703;44.412;11.918;2023-06-22T02:22:09;20.60;;;9.43;;
39314;SDS011;28703;44.412;11.918;2023-06-22T02:24:35;21.90;;;8.90;;
39314;SDS011;28703;44.412;11.918;2023-06-22T02:27:01;16.60;;;8.45;;
39314;SDS011;28703;44.412;11.918;2023-06-22T02:29:31;21.83;;;8.95;;
39314;SDS011;28703;44.412;11.918;2023-06-22T02:31:57;10.48;;;6.75;;
39314;SDS011;28703;44.412;11.918;2023-06-22T02:34:23;9.57;;;7.07;;
39314;SDS011;28703;44.412;11.918;2023-06-22T02:36:50;7.95;;;7.15;;
39314;SDS011;28703;44.412;11.918;2023-06-22T02:39:23;17.02;;;10.00;;
39314;SDS011;28703;44.412;11.918;2023-06-22T02:41:50;11.38;;;9.00;;
39314;SDS011;28703;44.412;11.918;2023-06-22T02:44:21;12.82;;;8.45;;
39314;SDS011;28703;44.412;11.918;2023-06-22T02:46:47;13.25;;;8.82;;
39314;SDS011;28703;44.412;11.918;2023-06-22T02:49:15;19.05;;;8.65;;
39314;SDS011;28703;44.412;11.918;2023-06-22T02:51:42;10.18;;;8.70;;
39314;SDS011;28703;44.412;11.918;2023-06-22T02:56:38;13.48;;;8.48;;
39314;SDS011;28703;44.412;11.918;2023-06-22T02:59:06;14.88;;;8.05;;
39314;SDS011;28703;44.412;11.918;2023-06-22T03:04:08;15.00;;;8.82;;
39314;SDS011;28703;44.412;11.918;2023-06-22T03:06:35;13.30;;;8.27;;
39314;SDS011;28703;44.412;11.918;2023-06-22T03:09:02;18.35;;;7.47;;
39314;SDS011;28703;44.412;11.918;2023-06-22T03:11:31;8.32;;;6.13;;
39314;SDS011;28703;44.412;11.918;2023-06-22T03:13:58;13.07;;;6.43;;
39314;SDS011;28703;44.412;11.918;2023-06-22T03:16:25;10.60;;;7.03;;
39314;SDS011;28703;44.412;11.918;2023-06-22T03:18:51;10.18;;;6.43;;
39314;SDS011;28703;44.412;11.918;2023-06-22T03:21:22;11.32;;;6.70;;
39314;SDS011;28703;44.412;11.918;2023-06-22T03:23:48;10.73;;;6.95;;
39314;SDS011;28703;44.412;11.918;2023-06-22T03:26:16;9.55;;;6.78;;
39314;SDS011;28703;44.412;11.918;2023-06-22T03:28:44;8.32;;;6.47;;
39314;SDS011;28703;44.412;11.918;2023-06-22T03:31:10;9.88;;;6.35;;
39314;SDS011;28703;44.412;11.918;2023-06-22T03:33:39;7.80;;;5.75;;
39314;SDS011;28703;44.412;11.918;2023-06-22T03:36:05;7.05;;;6.18;;
39314;SDS011;28703;44.412;11.918;2023-06-22T03:38:32;6.95;;;6.25;;
39314;SDS011;28703;44.412;11.918;2023-06-22T03:40:58;13.35;;;6.93;;
39314;SDS011;28703;44.412;11.918;2023-06-22T03:43:25;12.80;;;6.32;;
39314;SDS011;28703;44.412;11.918;2023-06-22T03:45:51;10.23;;;6.03;;
39314;SDS011;28703;44.412;11.918;2023-06-22T03:48:16;9.52;;;6.78;;
39314;SDS011;28703;44.412;11.918;2023-06-22T03:50:42;12.38;;;6.90;;
39314;SDS011;28703;44.412;11.918;2023-06-22T03:53:09;9.75;;;6.57;;
39314;SDS011;28703;44.412;11.918;2023-06-22T03:55:35;12.02;;;7.57;;
39314;SDS011;28703;44.412;11.918;2023-06-22T03:58:01;11.48;;;7.85;;
39314;SDS011;28703;44.412;11.918;2023-06-22T04:00:31;10.43;;;7.93;;
39314;SDS011;28703;44.412;11.918;2023-06-22T04:02:58;10.23;;;8.35;;
39314;SDS011;28703;44.412;11.918;2023-06-22T04:05:24;11.07;;;7.38;;
39314;SDS011;28703;44.412;11.918;2023-06-22T04:07:50;8.73;;;7.72;;
39314;SDS011;28703;44.412;11.918;2023-06-22T04:10:15;11.40;;;7.72;;
39314;SDS011;28703;44.412;11.918;2023-06-22T04:12:41;9.80;;;7.07;;
39314;SDS011;28703;44.412;11.918;2023-06-22T04:15:07;10.50;;;7.38;;
39314;SDS011;28703;44.412;11.918;2023-06-22T04:17:33;9.93;;;8.02;;
39314;SDS011;28703;44.412;11.918;2023-06-22T04:20:00;10.95;;;6.75;;
39314;SDS011;28703;44.412;11.918;2023-06-22T04:22:26;10.18;;;6.88;;
39314;SDS011;28703;44.412;11.918;2023-06-22T04:24:52;14.82;;;7.20;;
39314;SDS011;28703;44.412;11.918;2023-06-22T04:27:18;10.52;;;7.47;;
39314;SDS011;28703;44.412;11.918;2023-06-22T04:29:45;8.70;;;6.60;;
39314;SDS011;28703;44.412;11.918;2023-06-22T04:32:14;10.60;;;7.53;;
39314;SDS011;28703;44.412;11.918;2023-06-22T04:34:40;9.65;;;7.45;;
39314;SDS011;28703;44.412;11.918;2023-06-22T04:37:07;11.43;;;7.10;;
39314;SDS011;28703;44.412;11.918;2023-06-22T04:39:33;11.43;;;8.00;;
39314;SDS011;28703;44.412;11.918;2023-06-22T04:41:59;11.82;;;7.65;;
39314;SDS011;28703;44.412;11.918;2023-06-22T04:44:25;13.45;;;6.85;;
39314;SDS011;28703;44.412;11.918;2023-06-22T04:46:56;10.68;;;7.15;;
39314;SDS011;28703;44.412;11.918;2023-06-22T04:49:28;11.85;;;6.43;;
39314;SDS011;28703;44.412;11.918;2023-06-22T04:51:59;8.20;;;6.50;;
39314;SDS011;28703;44.412;11.918;2023-06-22T04:54:25;9.30;;;7.20;;
39314;SDS011;28703;44.412;11.918;2023-06-22T04:56:51;9.88;;;6.97;;
39314;SDS011;28703;44.412;11.918;2023-06-22T04:59:23;14.45;;;7.80;;
39314;SDS011;28703;44.412;11.918;2023-06-22T05:01:54;8.30;;;7.35;;
39314;SDS011;28703;44.412;11.918;2023-06-22T05:04:24;10.50;;;7.28;;
39314;SDS011;28703;44.412;11.918;2023-06-22T05:06:53;8.07;;;6.60;;
39314;SDS011;28703;44.412;11.918;2023-06-22T05:09:19;13.18;;;7.32;;
39314;SDS011;28703;44.412;11.918;2023-06-22T05:11:46;12.55;;;8.75;;
39314;SDS011;28703;44.412;11.918;2023-06-22T05:14:12;12.15;;;8.35;;
39314;SDS011;28703;44.412;11.918;2023-06-22T05:16:40;9.50;;;7.85;;
39314;SDS011;28703;44.412;11.918;2023-06-22T05:19:07;10.10;;;7.60;;
39314;SDS011;28703;44.412;11.918;2023-06-22T05:21:33;10.45;;;6.72;;
39314;SDS011;28703;44.412;11.918;2023-06-22T05:24:05;12.30;;;6.50;;
39314;SDS011;28703;44.412;11.918;2023-06-22T05:26:34;13.30;;;6.15;;
39314;SDS011;28703;44.412;11.918;2023-06-22T05:29:01;7.50;;;5.65;;
39314;SDS011;28703;44.412;11.918;2023-06-22T05:31:28;14.98;;;6.72;;
39314;SDS011;28703;44.412;11.918;2023-06-22T05:33:56;7.95;;;6.05;;
39314;SDS011;28703;44.412;11.918;2023-06-22T05:36:22;11.15;;;6.30;;
39314;SDS011;28703;44.412;11.918;2023-06-22T05:38:51;14.18;;;7.35;;
39314;SDS011;28703;44.412;11.918;2023-06-22T05:41:18;11.98;;;6.80;;
39314;SDS011;28703;44.412;11.918;2023-06-22T05:43:44;12.00;;;7.22;;
39314;SDS011;28703;44.412;11.918;2023-06-22T05:46:10;11.27;;;7.50;;
39314;SDS011;28703;44.412;11.918;2023-06-22T05:48:36;12.65;;;7.78;;
39314;SDS011;28703;44.412;11.918;2023-06-22T05:51:02;11.57;;;7.47;;
39314;SDS011;28703;44.412;11.918;2023-06-22T05:53:28;9.68;;;6.90;;
39314;SDS011;28703;44.412;11.918;2023-06-22T05:55:54;8.98;;;6.93;;
39314;SDS011;28703;44.412;11.918;2023-06-22T05:58:20;12.80;;;9.35;;
39314;SDS011;28703;44.412;11.918;2023-06-22T06:00:46;15.95;;;9.35;;
39314;SDS011;28703;44.412;11.918;2023-06-22T06:03:13;10.23;;;8.63;;
39314;SDS011;28703;44.412;11.918;2023-06-22T06:05:42;11.57;;;7.50;;
39314;SDS011;28703;44.412;11.918;2023-06-22T06:08:09;9.75;;;7.63;;
39314;SDS011;28703;44.412;11.918;2023-06-22T06:10:36;15.23;;;8.60;;
39314;SDS011;28703;44.412;11.918;2023-06-22T06:13:02;11.27;;;8.10;;
39314;SDS011;28703;44.412;11.918;2023-06-22T06:15:29;11.25;;;8.38;;
39314;SDS011;28703;44.412;11.918;2023-06-22T06:17:56;12.73;;;8.60;;
39314;SDS011;28703;44.412;11.918;2023-06-22T06:20:22;13.23;;;9.38;;
39314;SDS011;28703;44.412;11.918;2023-06-22T06:22:49;11.90;;;9.32;;
39314;SDS011;28703;44.412;11.918;2023-06-22T06:25:16;18.90;;;11.15;;
39314;SDS011;28703;44.412;11.918;2023-06-22T06:27:43;13.75;;;9.95;;
39314;SDS011;28703;44.412;11.918;2023-06-22T06:30:14;21.42;;;11.80;;
39314;SDS011;28703;44.412;11.918;2023-06-22T06:32:41;21.45;;;14.55;;
39314;SDS011;28703;44.412;11.918;2023-06-22T06:35:08;15.30;;;10.23;;
39314;SDS011;28703;44.412;11.918;2023-06-22T06:37:36;20.95;;;10.68;;
39314;SDS011;28703;44.412;11.918;2023-06-22T06:40:03;16.92;;;10.43;;
39314;SDS011;28703;44.412;11.918;2023-06-22T06:42:34;19.23;;;11.20;;
39314;SDS011;28703;44.412;11.918;2023-06-22T06:44:59;33.03;;;11.55;;
39314;SDS011;28703;44.412;11.918;2023-06-22T06:47:25;14.30;;;10.15;;
39314;SDS011;28703;44.412;11.918;2023-06-22T06:49:51;12.82;;;11.05;;
39314;SDS011;28703;44.412;11.918;2023-06-22T06:52:17;15.35;;;11.13;;
39314;SDS011;28703;44.412;11.918;2023-06-22T06:54:44;15.63;;;8.82;;
39314;SDS011;28703;44.412;11.918;2023-06-22T06:57:10;15.60;;;9.93;;
39314;SDS011;28703;44.412;11.918;2023-06-22T06:59:38;27.17;;;12.55;;
39314;SDS011;28703;44.412;11.918;2023-06-22T07:02:04;14.35;;;12.27;;
39314;SDS011;28703;44.412;11.918;2023-06-22T07:04:30;14.52;;;9.25;;
39314;SDS011;28703;44.412;11.918;2023-06-22T07:06:56;12.82;;;9.30;;
39314;SDS011;28703;44.412;11.918;2023-06-22T07:09:24;14.77;;;9.88;;
39314;SDS011;28703;44.412;11.918;2023-06-22T07:11:49;30.35;;;10.25;;
39314;SDS011;28703;44.412;11.918;2023-06-22T07:14:16;12.93;;;8.98;;
39314;SDS011;28703;44.412;11.918;2023-06-22T07:16:43;13.68;;;7.68;;
39314;SDS011;28703;44.412;11.918;2023-06-22T07:19:11;10.05;;;7.35;;
39314;SDS011;28703;44.412;11.918;2023-06-22T07:21:37;15.65;;;8.13;;
39314;SDS011;28703;44.412;11.918;2023-06-22T07:24:05;14.80;;;8.00;;
39314;SDS011;28703;44.412;11.918;2023-06-22T07:26:32;18.10;;;8.40;;
39314;SDS011;28703;44.412;11.918;2023-06-22T07:28:58;13.52;;;8.25;;
39314;SDS011;28703;44.412;11.918;2023-06-22T07:31:24;15.98;;;8.32;;
39314;SDS011;28703;44.412;11.918;2023-06-22T07:33:50;12.35;;;8.20;;
39314;SDS011;28703;44.412;11.918;2023-06-22T07:36:17;16.63;;;9.48;;
39314;SDS011;28703;44.412;11.918;2023-06-22T07:38:43;16.00;;;8.95;;
39314;SDS011;28703;44.412;11.918;2023-06-22T07:41:09;15.27;;;7.43;;
39314;SDS011;28703;44.412;11.918;2023-06-22T07:43:35;14.80;;;8.55;;
39314;SDS011;28703;44.412;11.918;2023-06-22T07:46:02;15.93;;;8.82;;
39314;SDS011;28703;44.412;11.918;2023-06-22T07:48:29;12.43;;;9.38;;
39314;SDS011;28703;44.412;11.918;2023-06-22T07:50:55;13.73;;;8.35;;
39314;SDS011;28703;44.412;11.918;2023-06-22T07:53:21;15.88;;;10.10;;
39314;SDS011;28703;44.412;11.918;2023-06-22T07:55:48;16.08;;;10.13;;
39314;SDS011;28703;44.412;11.918;2023-06-22T07:58:17;20.27;;;11.25;;
39314;SDS011;28703;44.412;11.918;2023-06-22T08:00:44;22.30;;;13.13;;
39314;SDS011;28703;44.412;11.918;2023-06-22T08:03:10;16.67;;;13.48;;
39314;SDS011;28703;44.412;11.918;2023-06-22T08:05:36;14.85;;;10.50;;
39314;SDS011;28703;44.412;11.918;2023-06-22T08:08:02;15.75;;;10.85;;
39314;SDS011;28703;44.412;11.918;2023-06-22T08:10:28;22.73;;;10.18;;
39314;SDS011;28703;44.412;11.918;2023-06-22T08:12:54;18.67;;;10.10;;
39314;SDS011;28703;44.412;11.918;2023-06-22T08:15:20;12.90;;;8.55;;
39314;SDS011;28703;44.412;11.918;2023-06-22T08:17:47;13.90;;;8.30;;
39314;SDS011;28703;44.412;11.918;2023-06-22T08:20:13;15.18;;;8.13;;
39314;SDS011;28703;44.412;11.918;2023-06-22T08:22:39;18.05;;;9.57;;
39314;SDS011;28703;44.412;11.918;2023-06-22T08:25:08;15.85;;;9.32;;
39314;SDS011;28703;44.412;11.918;2023-06-22T08:27:35;15.20;;;8.25;;
39314;SDS011;28703;44.412;11.918;2023-06-22T08:30:01;14.50;;;8.85;;
39314;SDS011;28703;44.412;11.918;2023-06-22T08:32:28;15.93;;;8.35;;
39314;SDS011;28703;44.412;11.918;2023-06-22T08:34:54;12.63;;;7.20;;
39314;SDS011;28703;44.412;11.918;2023-06-22T08:37:21;19.65;;;7.95;;
39314;SDS011;28703;44.412;11.918;2023-06-22T08:39:50;16.52;;;7.90;;
39314;SDS011;28703;44.412;11.918;2023-06-22T08:42:16;13.93;;;7.85;;
39314;SDS011;28703;44.412;11.918;2023-06-22T08:44:42;14.80;;;9.48;;
39314;SDS011;28703;44.412;11.918;2023-06-22T08:47:08;21.42;;;9.68;;
39314;SDS011;28703;44.412;11.918;2023-06-22T08:49:33;21.48;;;8.15;;
39314;SDS011;28703;44.412;11.918;2023-06-22T08:51:59;11.88;;;8.15;;
39314;SDS011;28703;44.412;11.918;2023-06-22T08:54:25;14.70;;;7.70;;
39314;SDS011;28703;44.412;11.918;2023-06-22T08:56:51;18.63;;;8.38;;
39314;SDS011;28703;44.412;11.918;2023-06-22T08:59:17;21.73;;;8.27;;
39314;SDS011;28703;44.412;11.918;2023-06-22T09:01:42;14.55;;;7.28;;
39314;SDS011;28703;44.412;11.918;2023-06-22T09:04:13;10.25;;;7.70;;
39314;SDS011;28703;44.412;11.918;2023-06-22T09:06:40;13.43;;;8.57;;
39314;SDS011;28703;44.412;11.918;2023-06-22T09:09:10;12.27;;;7.72;;
39314;SDS011;28703;44.412;11.918;2023-06-22T09:11:37;12.00;;;8.15;;
39314;SDS011;28703;44.412;11.918;2023-06-22T09:14:03;15.13;;;8.05;;
39314;SDS011;28703;44.412;11.918;2023-06-22T09:16:29;10.52;;;7.18;;
39314;SDS011;28703;44.412;11.918;2023-06-22T09:18:55;17.35;;;7.93;;
39314;SDS011;28703;44.412;11.918;2023-06-22T09:21:21;14.95;;;8.70;;
39314;SDS011;28703;44.412;11.918;2023-06-22T09:23:47;14.65;;;8.63;;
39314;SDS011;28703;44.412;11.918;2023-06-22T09:26:19;18.55;;;8.68;;
39314;SDS011;28703;44.412;11.918;2023-06-22T09:28:46;18.30;;;9.43;;
39314;SDS011;28703;44.412;11.918;2023-06-22T09:31:12;16.25;;;9.60;;
39314;SDS011;28703;44.412;11.918;2023-06-22T09:33:39;12.68;;;6.82;;
39314;SDS011;28703;44.412;11.918;2023-06-22T09:36:06;18.13;;;8.55;;
39314;SDS011;28703;44.412;11.918;2023-06-22T09:38:35;7.63;;;5.15;;
39314;SDS011;28703;44.412;11.918;2023-06-22T09:41:04;11.65;;;7.45;;
39314;SDS011;28703;44.412;11.918;2023-06-22T09:43:31;7.93;;;6.60;;
39314;SDS011;28703;44.412;11.918;2023-06-22T09:46:00;9.45;;;6.97;;
39314;SDS011;28703;44.412;11.918;2023-06-22T09:48:27;6.82;;;5.43;;
39314;SDS011;28703;44.412;11.918;2023-06-22T09:50:54;9.07;;;4.93;;
39314;SDS011;28703;44.412;11.918;2023-06-22T09:53:20;14.68;;;6.70;;
39314;SDS011;28703;44.412;11.918;2023-06-22T09:55:46;10.57;;;6.13;;
39314;SDS011;28703;44.412;11.918;2023-06-22T09:58:12;12.65;;;6.20;;
39314;SDS011;28703;44.412;11.918;2023-06-22T10:00:38;13.60;;;6.32;;
39314;SDS011;28703;44.412;11.918;2023-06-22T10:03:04;11.55;;;6.95;;
39314;SDS011;28703;44.412;11.918;2023-06-22T10:05:29;15.88;;;5.95;;
39314;SDS011;28703;44.412;11.918;2023-06-22T10:07:56;8.75;;;5.88;;
39314;SDS011;28703;44.412;11.918;2023-06-22T10:10:22;18.75;;;5.75;;
39314;SDS011;28703;44.412;11.918;2023-06-22T10:12:54;8.85;;;6.43;;
39314;SDS011;28703;44.412;11.918;2023-06-22T10:15:22;12.38;;;5.93;;
39314;SDS011;28703;44.412;11.918;2023-06-22T10:17:48;16.13;;;6.90;;
39314;SDS011;28703;44.412;11.918;2023-06-22T10:20:14;17.60;;;7.68;;
39314;SDS011;28703;44.412;11.918;2023-06-22T10:22:40;12.00;;;7.07;;
39314;SDS011;28703;44.412;11.918;2023-06-22T10:25:07;13.88;;;6.35;;
39314;SDS011;28703;44.412;11.918;2023-06-22T10:27:34;8.77;;;5.45;;
39314;SDS011;28703;44.412;11.918;2023-06-22T10:30:00;9.48;;;5.03;;
39314;SDS011;28703;44.412;11.918;2023-06-22T10:32:26;7.10;;;5.15;;
39314;SDS011;28703;44.412;11.918;2023-06-22T10:34:53;6.07;;;5.20;;
39314;SDS011;28703;44.412;11.918;2023-06-22T10:37:20;8.00;;;5.28;;
39314;SDS011;28703;44.412;11.918;2023-06-22T10:39:45;6.78;;;4.47;;
39314;SDS011;28703;44.412;11.918;2023-06-22T10:42:11;11.80;;;4.43;;
39314;SDS011;28703;44.412;11.918;2023-06-22T10:44:38;8.35;;;4.93;;
39314;SDS011;28703;44.412;11.918;2023-06-22T10:47:06;7.78;;;5.63;;
39314;SDS011;28703;44.412;11.918;2023-06-22T10:49:32;12.88;;;5.60;;
39314;SDS011;28703;44.412;11.918;2023-06-22T10:51:58;34.22;;;6.18;;
39314;SDS011;28703;44.412;11.918;2023-06-22T10:54:24;6.00;;;4.80;;
39314;SDS011;28703;44.412;11.918;2023-06-22T10:56:49;8.65;;;5.60;;
39314;SDS011;28703;44.412;11.918;2023-06-22T10:59:15;10.30;;;5.93;;
39314;SDS011;28703;44.412;11.918;2023-06-22T11:01:41;7.40;;;5.30;;
39314;SDS011;28703;44.412;11.918;2023-06-22T11:04:07;9.57;;;5.50;;
39314;SDS011;28703;44.412;11.918;2023-06-22T11:06:33;10.93;;;6.32;;
39314;SDS011;28703;44.412;11.918;2023-06-22T11:08:59;6.85;;;5.38;;
39314;SDS011;28703;44.412;11.918;2023-06-22T11:11:25;12.80;;;6.32;;
39314;SDS011;28703;44.412;11.918;2023-06-22T11:13:52;11.10;;;5.53;;
39314;SDS011;28703;44.412;11.918;2023-06-22T11:16:18;7.70;;;5.63;;
39314;SDS011;28703;44.412;11.918;2023-06-22T11:18:44;11.48;;;5.75;;
39314;SDS011;28703;44.412;11.918;2023-06-22T11:21:10;12.25;;;5.55;;
39314;SDS011;28703;44.412;11.918;2023-06-22T11:23:35;11.73;;;5.07;;
39314;SDS011;28703;44.412;11.918;2023-06-22T11:26:01;10.35;;;4.50;;
39314;SDS011;28703;44.412;11.918;2023-06-22T11:28:27;10.13;;;4.88;;
39314;SDS011;28703;44.412;11.918;2023-06-22T11:30:53;8.50;;;4.95;;
39314;SDS011;28703;44.412;11.918;2023-06-22T11:33:19;14.00;;;5.30;;
39314;SDS011;28703;44.412;11.918;2023-06-22T11:35:45;8.35;;;4.95;;
39314;SDS011;28703;44.412;11.918;2023-06-22T11:38:10;10.68;;;5.53;;
39314;SDS011;28703;44.412;11.918;2023-06-22T11:40:36;15.15;;;4.55;;
39314;SDS011;28703;44.412;11.918;2023-06-22T11:43:02;9.18;;;4.88;;
39314;SDS011;28703;44.412;11.918;2023-06-22T11:45:28;10.95;;;5.18;;
39314;SDS011;28703;44.412;11.918;2023-06-22T11:47:54;7.10;;;4.93;;
39314;SDS011;28703;44.412;11.918;2023-06-22T11:50:20;11.07;;;5.60;;
39314;SDS011;28703;44.412;11.918;2023-06-22T11:52:46;11.75;;;5.72;;
39314;SDS011;28703;44.412;11.918;2023-06-22T11:55:12;13.00;;;5.40;;
39314;SDS011;28703;44.412;11.918;2023-06-22T11:57:38;13.07;;;5.05;;
39314;SDS011;28703;44.412;11.918;2023-06-22T12:00:18;10.50;;;4.28;;
39314;SDS011;28703;44.412;11.918;2023-06-22T12:02:44;10.60;;;4.57;;
39314;SDS011;28703;44.412;11.918;2023-06-22T12:05:10;12.82;;;5.20;;
39314;SDS011;28703;44.412;11.918;2023-06-22T12:07:37;8.38;;;4.70;;
39314;SDS011;28703;44.412;11.918;2023-06-22T12:10:03;8.38;;;4.50;;
39314;SDS011;28703;44.412;11.918;2023-06-22T12:12:29;11.02;;;5.28;;
39314;SDS011;28703;44.412;11.918;2023-06-22T12:14:55;13.57;;;4.90;;
39314;SDS011;28703;44.412;11.918;2023-06-22T12:17:21;6.85;;;4.70;;
39314;SDS011;28703;44.412;11.918;2023-06-22T12:19:47;12.20;;;5.32;;
39314;SDS011;28703;44.412;11.918;2023-06-22T12:22:13;8.57;;;4.63;;
39314;SDS011;28703;44.412;11.918;2023-06-22T12:24:38;8.48;;;4.00;;
39314;SDS011;28703;44.412;11.918;2023-06-22T12:27:04;13.30;;;4.80;;
39314;SDS011;28703;44.412;11.918;2023-06-22T12:29:43;9.27;;;4.47;;
39314;SDS011;28703;44.412;11.918;2023-06-22T12:32:10;6.68;;;4.60;;
39314;SDS011;28703;44.412;11.918;2023-06-22T12:34:42;11.93;;;4.57;;
39314;SDS011;28703;44.412;11.918;2023-06-22T12:37:11;7.50;;;4.63;;
39314;SDS011;28703;44.412;11.918;2023-06-22T12:39:39;4.72;;;3.28;;
39314;SDS011;28703;44.412;11.918;2023-06-22T12:42:06;9.07;;;3.30;;
39314;SDS011;28703;44.412;11.918;2023-06-22T12:44:42;5.82;;;3.65;;
39314;SDS011;28703;44.412;11.918;2023-06-22T12:47:28;9.70;;;3.95;;
39314;SDS011;28703;44.412;11.918;2023-06-22T12:52:47;8.40;;;3.63;;
39314;SDS011;28703;44.412;11.918;2023-06-22T12:55:18;5.35;;;3.25;;
39314;SDS011;28703;44.412;11.918;2023-06-22T12:57:43;13.23;;;5.10;;
39314;SDS011;28703;44.412;11.918;2023-06-22T13:00:09;9.55;;;4.30;;
39314;SDS011;28703;44.412;11.918;2023-06-22T13:02:36;7.35;;;4.35;;
39314;SDS011;28703;44.412;11.918;2023-06-22T13:05:02;10.35;;;4.15;;
39314;SDS011;28703;44.412;11.918;2023-06-22T13:07:30;8.27;;;3.88;;
39314;SDS011;28703;44.412;11.918;2023-06-22T13:09:56;9.73;;;4.85;;
39314;SDS011;28703;44.412;11.918;2023-06-22T13:12:22;16.95;;;6.53;;
39314;SDS011;28703;44.412;11.918;2023-06-22T13:14:48;8.98;;;5.78;;
39314;SDS011;28703;44.412;11.918;2023-06-22T13:17:14;13.20;;;6.28;;
39314;SDS011;28703;44.412;11.918;2023-06-22T13:19:40;11.38;;;6.55;;
39314;SDS011;28703;44.412;11.918;2023-06-22T13:22:09;9.73;;;6.03;;
39314;SDS011;28703;44.412;11.918;2023-06-22T13:24:58;12.27;;;5.90;;
39314;SDS011;28703;44.412;11.918;2023-06-22T13:27:25;12.10;;;5.90;;
39314;SDS011;28703;44.412;11.918;2023-06-22T13:29:51;7.38;;;6.32;;
39314;SDS011;28703;44.412;11.918;2023-06-22T13:32:17;10.98;;;6.72;;
39314;SDS011;28703;44.412;11.918;2023-06-22T13:34:43;12.57;;;6.97;;
39314;SDS011;28703;44.412;11.918;2023-06-22T13:37:09;20.85;;;6.40;;
39314;SDS011;28703;44.412;11.918;2023-06-22T13:39:35;15.43;;;7.43;;
39314;SDS011;28703;44.412;11.918;2023-06-22T13:42:01;13.35;;;5.95;;
39314;SDS011;28703;44.412;11.918;2023-06-22T13:44:26;13.38;;;7.35;;
39314;SDS011;28703;44.412;11.918;2023-06-22T13:46:56;11.07;;;6.13;;
39314;SDS011;28703;44.412;11.918;2023-06-22T14:18:57;7.90;;;5.13;;
39314;SDS011;28703;44.412;11.918;2023-06-22T14:21:23;8.85;;;5.20;;
39314;SDS011;28703;44.412;11.918;2023-06-22T14:23:49;10.65;;;5.22;;
39314;SDS011;28703;44.412;11.918;2023-06-22T14:26:15;9.40;;;4.60;;
39314;SDS011;28703;44.412;11.918;2023-06-22T14:28:43;10.13;;;4.88;;
39314;SDS011;28703;44.412;11.918;2023-06-22T14:31:17;8.25;;;4.97;;
39314;SDS011;28703;44.412;11.918;2023-06-22T14:33:47;4.82;;;4.32;;
39314;SDS011;28703;44.412;11.918;2023-06-22T14:36:14;10.55;;;4.68;;
39314;SDS011;28703;44.412;11.918;2023-06-22T14:38:40;16.63;;;4.90;;
39314;SDS011;28703;44.412;11.918;2023-06-22T14:41:06;6.97;;;4.30;;
39314;SDS011;28703;44.412;11.918;2023-06-22T14:43:32;15.52;;;5.47;;
39314;SDS011;28703;44.412;11.918;2023-06-22T14:45:58;13.77;;;5.15;;
39314;SDS011;28703;44.412;11.918;2023-06-22T14:48:23;7.45;;;4.70;;
39314;SDS011;28703;44.412;11.918;2023-06-22T14:50:49;15.65;;;4.30;;
39314;SDS011;28703;44.412;11.918;2023-06-22T14:53:15;13.63;;;4.70;;
39314;SDS011;28703;44.412;11.918;2023-06-22T14:55:41;9.40;;;4.97;;
39314;SDS011;28703;44.412;11.918;2023-06-22T14:58:07;8.20;;;4.30;;
39314;SDS011;28703;44.412;11.918;2023-06-22T15:00:33;5.25;;;3.95;;
39314;SDS011;28703;44.412;11.918;2023-06-22T15:02:58;12.02;;;4.32;;
39314;SDS011;28703;44.412;11.918;2023-06-22T15:05:24;8.40;;;4.32;;
39314;SDS011;28703;44.412;11.918;2023-06-22T15:07:50;4.95;;;3.97;;
39314;SDS011;28703;44.412;11.918;2023-06-22T15:10:16;7.20;;;3.55;;
39314;SDS011;28703;44.412;11.918;2023-06-22T15:12:42;4.65;;;3.45;;
39314;SDS011;28703;44.412;11.918;2023-06-22T15:15:08;8.60;;;4.32;;